Flight Track Log - Related Links

Times and Time Zones

All times are in EDT time to prevent confusion due to time zone crossing. See the FLG3432 flight status page for this flight to view local times or setup timezone preferences in your user account.

Time Position Orientation Groundspeed Altitude Reporting Facility
EDT Latitude Longitude Course Direction KTS MPH feet Rate Location/Type
Mon 07:32:58 PM 40.8153 -111.9792 163° South 187 215 4,900  Level Salt Lake Center
Mon 07:33:41 PM 40.8525 -111.9836 355° North 192 221 6,000 1,263 Climbing Salt Lake Center
Mon 07:34:14 PM 40.8836 -111.9875 355° North 214 246 6,500 1,468 Climbing Salt Lake Center
Mon 07:35:15 PM 40.9522 -111.9967 354° North 244 281 8,300 2,043 Climbing Salt Lake Center
Mon 07:35:48 PM 41.0028 -112.0033 354° North 258 297 9,700 1,887 Climbing Salt Lake Center
Mon 07:36:00 PM 41.1173 -111.7692 108° East  Level FlightAware Approximate
Mon 07:37:00 PM 41.0008 -111.7159 163° South  Level FlightAware Approximate
Mon 07:37:19 PM 41.0547 -111.9192 51° Northeast 275 316 12,200  Level Salt Lake Center
Mon 07:38:00 PM 40.8824 -111.6672 163° South  Level FlightAware Approximate
Mon 07:38:21 PM 40.9950 -111.8253 130° Southeast 295 339 14,500  Level Salt Lake Center
Mon 07:39:23 PM 40.9342 -111.7406 134° Southeast 320 368 15,800 1,258 Climbing Salt Lake Center
Mon 07:40:25 PM 40.8667 -111.6464 133° Southeast 350 403 17,100 1,258 Climbing Salt Lake Center
Mon 07:41:27 PM 40.7939 -111.5458 134° Southeast 377 434 18,400 1,610 Climbing Salt Lake Center
Mon 07:42:28 PM 40.7053 -111.4225 133° Southeast 386 444 20,400 1,707 Climbing Salt Lake Center
Mon 07:43:30 PM 40.6611 -111.2925 114° Southeast 390 449 21,900 1,452 Climbing Salt Lake Center
Mon 07:44:32 PM 40.6222 -111.1597 111° Southeast 389 448 23,400 1,258 Climbing Salt Lake Center
Mon 07:45:34 PM 40.6033 -111.0147 100° East 400 460 24,500 1,210 Climbing Salt Lake Center
Mon 07:46:36 PM 40.6011 -110.8658 91° East 407 468 25,900 1,161 Climbing Salt Lake Center
Mon 07:47:38 PM 40.6075 -110.7139 87° East 416 479 26,900 823 Climbing Salt Lake Center
Mon 07:48:40 PM 40.5856 -110.5497 100° East 438 504 27,600 968 Climbing Salt Lake Center
Mon 07:49:42 PM 40.5236 -110.3739 115° Southeast 459 528 28,900 677 Climbing Salt Lake Center
Mon 07:50:44 PM 40.4619 -110.2336 120° Southeast 464 534 29,000 293 Climbing Salt Lake Center
Mon 07:51:45 PM 40.3911 -110.0742 120° Southeast 454 522 29,500 927 Climbing Salt Lake Center
Mon 07:52:47 PM 40.3297 -109.9347 120° Southeast 460 529 30,900 1,258 Climbing Salt Lake Center
Mon 07:53:49 PM 40.2575 -109.7706 120° Southeast 464 534 32,100 1,210 Climbing Salt Lake Center
Mon 07:54:51 PM 40.1961 -109.6331 120° Southeast 460 529 33,400 1,161 Climbing Salt Lake Center
Mon 07:55:53 PM 40.1361 -109.4953 120° Southeast 456 525 34,500 1,065 Climbing Salt Lake Center
Mon 07:56:55 PM 40.0658 -109.3375 120° Southeast 450 518 35,600 919 Climbing Salt Lake Center
Mon 07:57:57 PM 40.0056 -109.2031 120° Southeast 449 517 36,400 677 Climbing Salt Lake Center
Mon 07:58:59 PM 39.9344 -109.0433 120° Southeast 452 520 37,000 290 Climbing Salt Lake Center
Mon 08:00:01 PM 39.8719 -108.9039 120° Southeast 462 532 37,000  Level Salt Lake Center
Mon 08:01:02 PM 39.7972 -108.7353 120° Southeast 475 547 37,000  Level Salt Lake Center
Mon 08:02:04 PM 39.7294 -108.5861 121° Southeast 489 563 37,000  Level Salt Lake Center
Mon 08:03:08 PM 39.6606 -108.4400 121° Southeast 487 560 37,000  Level Denver Center
Mon 08:04:10 PM 39.5803 -108.2694 121° Southeast 493 567 37,000  Level Denver Center
Mon 08:05:12 PM 39.5150 -108.1261 121° Southeast 482 555 37,000  Level Denver Center
Mon 08:06:14 PM 39.4372 -107.9597 121° Southeast 484 557 37,000  Level Denver Center
Mon 08:07:16 PM 39.3706 -107.8175 121° Southeast 483 556 37,000  Level Denver Center
Mon 08:08:18 PM 39.2933 -107.6511 121° Southeast 484 557 37,000  Level Denver Center
Mon 08:09:20 PM 39.2267 -107.5122 122° Southeast 479 551 37,000  Level Denver Center
Mon 08:10:22 PM 39.1486 -107.3486 122° Southeast 480 552 37,000  Level Denver Center
Mon 08:11:25 PM 39.0831 -107.2097 121° Southeast 475 547 37,000  Level Denver Center
Mon 08:12:27 PM 39.0050 -107.0472 122° Southeast 477 549 37,000  Level Denver Center
Mon 08:13:29 PM 38.9378 -106.9083 122° Southeast 478 550 37,000  Level Denver Center
Mon 08:14:31 PM 38.8617 -106.7536 122° Southeast 481 554 37,000  Level Denver Center
Mon 08:15:33 PM 38.7903 -106.6078 122° Southeast 486 559 37,000  Level Denver Center
Mon 08:16:35 PM 38.7183 -106.4608 122° Southeast 490 564 37,000  Level Denver Center
Mon 08:17:37 PM 38.6475 -106.3153 122° Southeast 480 552 37,000  Level Denver Center
Mon 08:18:39 PM 38.5722 -106.1614 122° Southeast 480 552 37,000  Level Denver Center
Mon 08:19:41 PM 38.4928 -106.0006 122° Southeast 478 550 37,000  Level Denver Center
Mon 08:20:43 PM 38.4250 -105.8628 122° Southeast 480 552 37,000  Level Denver Center
Mon 08:21:45 PM 38.3442 -105.7025 123° Southeast 480 552 37,000  Level Denver Center
Mon 08:22:47 PM 38.2758 -105.5661 123° Southeast 478 550 37,000  Level Denver Center
Mon 08:23:49 PM 38.1961 -105.4067 122° Southeast 478 550 37,000  Level Denver Center
Mon 08:24:51 PM 38.1253 -105.2700 123° Southeast 482 555 37,000  Level Denver Center
Mon 08:25:53 PM 38.0447 -105.1089 122° Southeast 484 557 37,000  Level Denver Center
Mon 08:26:55 PM 37.9747 -104.9731 123° Southeast 482 555 37,000  Level Denver Center
Mon 08:27:57 PM 37.9039 -104.8342 123° Southeast 485 558 37,000  Level Denver Center
Mon 08:28:59 PM 37.8200 -104.6728 123° Southeast 491 565 37,000  Level Denver Center
Mon 08:30:01 PM 37.7483 -104.5331 123° Southeast 495 570 37,000  Level Denver Center
Mon 08:31:03 PM 37.6642 -104.3728 124° Southeast 493 567 37,000  Level Denver Center
Mon 08:32:05 PM 37.5919 -104.2364 124° Southeast 491 565 37,000  Level Denver Center
Mon 08:33:07 PM 37.5078 -104.0797 124° Southeast 493 567 37,000  Level Denver Center
Mon 08:34:09 PM 37.4281 -103.9219 122° Southeast 494 568 37,000  Level Denver Center
Mon 08:35:11 PM 37.3572 -103.7878 124° Southeast 485 558 37,000  Level Denver Center
Mon 08:36:12 PM 37.2750 -103.6317 123° Southeast 482 555 37,000  Level Denver Center
Mon 08:37:14 PM 37.1981 -103.5011 126° Southeast 485 558 37,000  Level Denver Center
Mon 08:38:16 PM 37.1156 -103.3747 129° Southeast 488 562 37,000  Level Denver Center
Mon 08:39:18 PM 37.0189 -103.2261 129° Southeast 493 567 37,000  Level Albuquerque Center
Mon 08:40:20 PM 36.9350 -103.0969 129° Southeast 499 574 37,000  Level Albuquerque Center
Mon 08:41:21 PM 36.8375 -102.9444 129° Southeast 502 578 37,000  Level Albuquerque Center
Mon 08:42:22 PM 36.7525 -102.8131 129° Southeast 506 582 37,000  Level Albuquerque Center
Mon 08:43:24 PM 36.6531 -102.6594 129° Southeast 508 585 37,000  Level Albuquerque Center
Mon 08:44:25 PM 36.5736 -102.5383 129° Southeast 511 588 37,000  Level Albuquerque Center
Mon 08:45:26 PM 36.4847 -102.4031 129° Southeast 508 585 37,000  Level Albuquerque Center
Mon 08:46:28 PM 36.3967 -102.2686 129° Southeast 503 579 37,000  Level Albuquerque Center
Mon 08:47:29 PM 36.2892 -102.1064 129° Southeast 506 582 37,000  Level Albuquerque Center
Mon 08:48:31 PM 36.2003 -101.9714 129° Southeast 506 582 37,000  Level Albuquerque Center
Mon 08:49:32 PM 36.1103 -101.8369 130° Southeast 506 582 37,000  Level Albuquerque Center
Mon 08:50:34 PM 36.0200 -101.7019 130° Southeast 506 582 37,000  Level Albuquerque Center
Mon 08:51:35 PM 35.9292 -101.5656 129° Southeast 509 586 37,000  Level Albuquerque Center
Mon 08:52:36 PM 35.8392 -101.4303 129° Southeast 509 586 37,000  Level Albuquerque Center
Mon 08:53:38 PM 35.7497 -101.2922 129° Southeast 511 588 37,000  Level Albuquerque Center
Mon 08:54:39 PM 35.6636 -101.1539 127° Southeast 508 585 37,000  Level Albuquerque Center
Mon 08:55:40 PM 35.5761 -101.0153 128° Southeast 509 586 37,000  Level Albuquerque Center
Mon 08:56:42 PM 35.4886 -100.8775 128° Southeast 508 585 37,000  Level Albuquerque Center
Mon 08:57:43 PM 35.4003 -100.7394 128° Southeast 511 588 37,000  Level Albuquerque Center
Mon 08:58:44 PM 35.2975 -100.5792 128° Southeast 513 590 37,000  Level Albuquerque Center
Mon 08:59:46 PM 35.2092 -100.4428 128° Southeast 513 590 37,000  Level Albuquerque Center
Mon 09:00:47 PM 35.1225 -100.3069 128° Southeast 510 587 37,000  Level Albuquerque Center
Mon 09:01:48 PM 35.0347 -100.1714 128° Southeast 509 586 37,000  Level Albuquerque Center
Mon 09:02:50 PM 34.9461 -100.0353 128° Southeast 511 588 37,000  Level Albuquerque Center
Mon 09:03:51 PM 34.8581 -99.9000 128° Southeast 511 588 37,000 -443 Level Albuquerque Center
Mon 09:04:52 PM 34.7689 -99.7653 129° Southeast 511 588 36,100 -927 Descending Albuquerque Center
Mon 09:05:54 PM 34.6803 -99.6286 128° Southeast 514 592 35,100 -1,366 Descending Albuquerque Center
Mon 09:06:55 PM 34.5767 -99.4708 129° Southeast 502 578 33,300 -1,584 Descending Albuquerque Center
Mon 09:07:59 PM 34.4861 -99.3333 129° Southeast 504 580 31,800 -1,452 Descending Fort Worth Center
Mon 09:08:59 PM 34.4003 -99.2056 129° Southeast 499 574 30,300 -1,300 Descending Fort Worth Center
Mon 09:09:59 PM 34.3247 -99.1008 131° Southeast 489 563 29,200 -1,050 Descending Fort Worth Center
Mon 09:10:59 PM 34.2489 -98.9889 129° Southeast 456 525 28,200 -1,000 Descending Fort Worth Center
Mon 09:11:59 PM 34.1731 -98.8719 128° Southeast 444 511 27,200 -1,250 Descending Fort Worth Center
Mon 09:12:59 PM 34.0850 -98.7400 129° Southeast 444 511 25,700 -1,500 Descending Fort Worth Center
Mon 09:13:59 PM 34.0131 -98.6289 128° Southeast 444 511 24,200 -850 Descending Fort Worth Center
Mon 09:14:59 PM 33.9453 -98.5175 126° Southeast 427 491 24,000 -100 Descending Fort Worth Center
Mon 09:15:59 PM 33.8731 -98.4142 130° Southeast 413 475 24,000  Level Fort Worth Center
Mon 09:16:59 PM 33.8008 -98.2983 127° Southeast 413 475 24,000 -600 Level Fort Worth Center
Mon 09:17:59 PM 33.7283 -98.1928 130° Southeast 440 506 22,800 -1,850 Descending Fort Worth Center
Mon 09:18:59 PM 33.6458 -98.0672 128° Southeast 451 519 20,300 -2,350 Descending Fort Worth Center
Mon 09:19:59 PM 33.5689 -97.9544 129° Southeast 445 512 18,100 -1,950 Descending Fort Worth Center
Mon 09:20:59 PM 33.4964 -97.8444 128° Southeast 434 499 16,400 -1,750 Descending Fort Worth Center
Mon 09:21:59 PM 33.4342 -97.7519 129° Southeast 413 475 14,600 -1,850 Descending Fort Worth Center
Mon 09:22:59 PM 33.3633 -97.6472 129° Southeast 388 447 12,700 -1,714 Descending Fort Worth Center
Mon 09:23:58 PM 33.3000 -97.5500 128° Southeast 334 384 11,200 -857 Descending Dallas / Fort Worth TRACON
Mon 09:24:58 PM 33.2500 -97.4667 126° Southeast 307 353 11,000 -50 Descending Dallas / Fort Worth TRACON
Mon 09:25:58 PM 33.1833 -97.4000 140° Southeast 304 350 11,100 50 Climbing Dallas / Fort Worth TRACON
Mon 09:26:58 PM 33.1167 -97.3333 140° Southeast 310 357 11,100  Level Dallas / Fort Worth TRACON
Mon 09:27:58 PM 33.0667 -97.2667 132° Southeast 313 360 11,100 -50 Level Dallas / Fort Worth TRACON
Mon 09:28:59 PM 33.0064 -97.2003 137° Southeast 303 349 11,000 -149 Descending Fort Worth Center
Mon 09:29:59 PM 32.9417 -97.1658 156° South 294 338 10,800 -850 Descending Fort Worth Center
Mon 09:30:59 PM 32.8644 -97.1686 182° South 266 306 9,300 -1,500 Descending Fort Worth Center
Mon 09:31:59 PM 32.7933 -97.1686 180° South 261 300 7,800 -1,500 Descending Fort Worth Center
Mon 09:32:59 PM 32.7286 -97.1567 171° South 246 283 6,300 -1,361 Descending Fort Worth Center
Mon 09:33:58 PM 32.6833 -97.1000 134° Southeast 224 258 5,100 -956 Descending Dallas / Fort Worth TRACON
Mon 09:34:52 PM 32.6833 -97.0333 90° East 216 249 4,500 -667 Descending Dallas / Fort Worth TRACON

Login

Don't have an account? Register now (free) for customized features, flight alerts, and more!